Time;durP1;ratioP1;P1;durP2;ratioP2;P2;SDS_P1;SDS_P2;PMS_P1;PMS_P2;Temp;Humidity;BMP_temperature;BMP_pressure;BME280_temperature;BME280_humidity;BME280_pressure;Samples;Min_cycle;Max_cycle;Signal;HPM_P1;HPM_P2
2023/08/12 00:03:41;;;;;;;6.30;5.70;;;;;;;10.86;74.06;100467.46;218105;1254;140046;-70
2023/08/12 00:08:46;;;;;;;7.30;5.10;;;;;;;10.83;73.86;100472.53;218057;1258;139776;-70
2023/08/12 00:13:50;;;;;;;6.80;4.80;;;;;;;10.73;73.83;100476.02;218500;1254;140000;-72
2023/08/12 00:18:56;;;;;;;7.00;5.30;;;;;;;10.64;74.05;100475.73;218140;1254;140777;-72
2023/08/12 00:24:00;;;;;;;7.90;6.40;;;;;;;10.60;74.30;100482.73;219553;1254;140950;-72
2023/08/12 00:29:06;;;;;;;8.90;5.20;;;;;;;10.61;74.65;100485.76;218341;1254;143607;-71
2023/08/12 00:34:11;;;;;;;6.40;5.30;;;;;;;10.60;74.51;100486.66;219364;1254;140218;-72
2023/08/12 00:39:16;;;;;;;10.60;6.70;;;;;;;10.51;74.62;100485.21;219763;1254;140526;-72
2023/08/12 00:44:21;;;;;;;8.00;5.40;;;;;;;10.44;74.60;100485.61;220746;1254;139200;-72
2023/08/12 00:49:27;;;;;;;6.40;5.80;;;;;;;10.38;74.66;100482.19;220514;1254;253877;-71
2023/08/12 00:54:31;;;;;;;9.10;6.10;;;;;;;10.33;75.00;100479.92;219541;1256;140820;-70
2023/08/12 00:59:39;;;;;;;9.70;6.30;;;;;;;10.29;75.05;100479.09;219342;1254;139879;-70
2023/08/12 01:04:44;;;;;;;9.70;6.30;;;;;;;10.26;75.25;100479.80;220497;1254;140240;-72
2023/08/12 01:09:48;;;;;;;12.90;7.70;;;;;;;10.22;75.47;100470.96;219130;1255;140244;-70
2023/08/12 01:15:03;;;;;;;7.30;6.60;;;;;;;10.23;75.53;100473.01;218164;1257;139781;-71
2023/08/12 01:20:08;;;;;;;8.00;7.10;;;;;;;10.19;75.61;100468.80;219184;1256;139701;-71
2023/08/12 01:25:14;;;;;;;7.70;6.50;;;;;;;10.11;75.64;100470.80;218709;1254;140436;-71
2023/08/12 01:30:20;;;;;;;8.60;6.10;;;;;;;10.04;75.81;100471.64;218857;1253;139458;-72
2023/08/12 01:35:28;;;;;;;10.90;7.50;;;;;;;10.03;76.02;100475.48;218305;1257;139793;-71
2023/08/12 01:40:35;;;;;;;7.40;6.50;;;;;;;10.03;76.29;100471.91;218500;1256;141455;-72
2023/08/12 01:45:41;;;;;;;10.60;7.10;;;;;;;9.99;76.18;100472.96;218470;1254;140321;-71
2023/08/12 01:50:47;;;;;;;14.00;8.30;;;;;;;9.94;76.34;100474.25;218843;1254;142075;-71
2023/08/12 01:55:53;;;;;;;8.60;6.80;;;;;;;9.88;76.44;100479.30;219046;1254;140994;-71
2023/08/12 02:00:59;;;;;;;7.60;7.00;;;;;;;9.84;76.55;100481.17;218297;1255;140191;-71
2023/08/12 02:06:04;;;;;;;8.40;6.30;;;;;;;9.82;76.77;100474.99;219118;1254;139556;-70
2023/08/12 02:11:09;;;;;;;10.40;7.10;;;;;;;9.75;76.82;100475.73;218582;1254;139866;-72
2023/08/12 02:16:14;;;;;;;9.00;6.60;;;;;;;9.70;77.19;100475.38;219165;1254;139434;-71
2023/08/12 02:21:20;;;;;;;7.50;5.80;;;;;;;9.67;77.19;100478.09;217959;1255;140241;-70
2023/08/12 02:26:25;;;;;;;8.60;6.20;;;;;;;9.63;77.34;100475.36;219936;1254;140719;-71
2023/08/12 02:31:30;;;;;;;6.30;5.60;;;;;;;9.61;77.40;100470.58;219208;1255;139580;-71
2023/08/12 02:36:35;;;;;;;6.30;5.70;;;;;;;9.59;77.42;100464.89;219796;1254;140049;-71
2023/08/12 02:41:42;;;;;;;6.70;5.80;;;;;;;9.56;77.50;100455.31;220094;1254;139674;-72
2023/08/12 02:46:47;;;;;;;6.30;5.60;;;;;;;9.60;77.67;100453.13;219967;1255;139382;-72
2023/08/12 02:51:51;;;;;;;10.40;5.50;;;;;;;9.60;77.46;100456.95;220654;1257;140363;-72
2023/08/12 02:56:55;;;;;;;6.50;5.70;;;;;;;9.58;77.51;100461.58;220332;1257;141511;-71
2023/08/12 03:02:00;;;;;;;6.60;5.20;;;;;;;9.58;77.53;100458.26;219107;1256;139914;-71
2023/08/12 03:07:05;;;;;;;7.00;6.30;;;;;;;9.53;77.46;100458.80;218566;1258;139734;-71
2023/08/12 03:12:10;;;;;;;7.80;5.80;;;;;;;9.44;77.81;100462.17;218990;1256;139567;-71
2023/08/12 03:17:15;;;;;;;6.50;5.10;;;;;;;9.43;78.26;100464.09;219121;1257;140666;-72
2023/08/12 03:22:20;;;;;;;6.60;5.20;;;;;;;9.42;78.38;100463.33;218034;1257;140172;-71
2023/08/12 03:27:25;;;;;;;8.40;5.30;;;;;;;9.40;78.48;100464.27;218046;1254;140380;-72
2023/08/12 03:32:31;;;;;;;21.80;8.50;;;;;;;9.39;78.68;100463.16;218105;1259;209430;-71
2023/08/12 03:37:37;;;;;;;6.50;5.90;;;;;;;9.41;78.78;100466.75;217899;1257;140630;-70
2023/08/12 03:42:42;;;;;;;8.60;5.20;;;;;;;9.45;79.01;100464.55;218337;1254;141347;-71
2023/08/12 03:47:47;;;;;;;7.50;5.60;;;;;;;9.46;79.01;100465.56;218207;1257;140063;-71
2023/08/12 03:52:53;;;;;;;7.70;6.10;;;;;;;9.50;79.26;100462.91;218218;1257;140499;-71
2023/08/12 03:57:57;;;;;;;9.80;7.10;;;;;;;9.60;79.21;100461.94;218033;1257;139494;-71
2023/08/12 04:03:03;;;;;;;10.70;5.70;;;;;;;9.77;79.71;100460.45;218756;1255;139274;-72
2023/08/12 04:08:08;;;;;;;7.30;5.40;;;;;;;9.95;79.70;100458.30;218137;1254;140465;-70
2023/08/12 04:13:14;;;;;;;11.90;7.10;;;;;;;10.10;79.54;100456.66;219483;1254;139930;-70
2023/08/12 04:18:20;;;;;;;7.40;6.20;;;;;;;10.29;79.83;100461.30;218070;1254;140127;-71
2023/08/12 04:23:25;;;;;;;76.80;11.20;;;;;;;10.51;79.97;100461.83;219688;1254;141392;-72
2023/08/12 04:28:31;;;;;;;8.70;7.20;;;;;;;10.76;80.26;100456.63;219673;1254;141075;-71
2023/08/12 04:33:36;;;;;;;10.50;7.50;;;;;;;11.01;80.13;100457.42;220698;1254;141547;-71
2023/08/12 04:38:40;;;;;;;8.10;7.30;;;;;;;11.35;80.47;100459.88;218307;1257;140739;-70
2023/08/12 04:43:45;;;;;;;7.90;6.70;;;;;;;11.64;80.33;100459.78;220789;1254;139685;-71
2023/08/12 04:48:51;;;;;;;11.50;9.30;;;;;;;11.88;80.36;100460.27;220214;1254;140919;-73
2023/08/12 04:53:55;;;;;;;11.40;9.70;;;;;;;12.17;80.53;100460.67;218307;1257;139952;-74
2023/08/12 04:59:00;;;;;;;16.90;7.40;;;;;;;12.51;80.82;100459.06;218280;1257;151096;-73
2023/08/12 05:04:04;;;;;;;8.30;7.50;;;;;;;12.85;80.74;100463.73;218953;1254;140081;-72
2023/08/12 05:09:09;;;;;;;12.10;7.10;;;;;;;13.19;80.75;100462.25;219189;1256;140358;-71
2023/08/12 05:14:13;;;;;;;9.90;7.70;;;;;;;13.52;80.69;100464.15;218408;1255;140164;-71
2023/08/12 05:19:17;;;;;;;13.10;8.20;;;;;;;13.83;80.65;100460.43;218278;1259;139292;-69
2023/08/12 05:24:21;;;;;;;9.40;7.60;;;;;;;14.09;80.72;100459.85;218370;1258;140052;-71
2023/08/12 05:29:26;;;;;;;13.40;8.10;;;;;;;14.37;80.62;100454.79;218347;1257;140923;-69
2023/08/12 05:34:30;;;;;;;11.80;7.00;;;;;;;14.65;80.43;100451.09;219495;1256;141877;-70
2023/08/12 05:39:36;;;;;;;9.30;6.70;;;;;;;15.25;80.04;100454.83;218411;1255;140004;-69
2023/08/12 05:44:42;;;;;;;9.00;5.60;;;;;;;16.01;79.47;100455.66;218860;1256;141052;-70
2023/08/12 05:49:47;;;;;;;7.20;6.20;;;;;;;18.64;75.31;100447.91;217807;1259;140179;-67
2023/08/12 05:54:53;;;;;;;9.60;5.40;;;;;;;19.93;73.07;100449.14;218585;1259;139677;-67
2023/08/12 05:59:58;;;;;;;5.90;5.30;;;;;;;19.60;72.98;100457.52;217946;1257;139907;-67
2023/08/12 06:05:05;;;;;;;6.10;5.50;;;;;;;19.47;72.21;100462.80;217942;1257;140348;-68
2023/08/12 06:10:10;;;;;;;5.40;2.90;;;;;;;19.42;71.44;100454.21;219322;1258;139998;-68
2023/08/12 06:15:15;;;;;;;5.70;2.80;;;;;;;19.20;69.87;100452.81;218774;1257;141351;-68
2023/08/12 06:20:20;;;;;;;3.30;2.40;;;;;;;18.95;69.05;100448.92;218408;1256;140480;-67
2023/08/12 06:25:24;;;;;;;4.80;2.70;;;;;;;18.99;68.96;100452.75;218700;1255;140635;-67
2023/08/12 06:30:30;;;;;;;5.70;3.20;;;;;;;19.10;68.22;100450.25;218877;1257;140480;-67
2023/08/12 06:35:35;;;;;;;3.50;1.90;;;;;;;19.23;68.07;100453.89;220856;1254;140079;-68
2023/08/12 06:40:40;;;;;;;7.90;2.50;;;;;;;19.42;66.55;100453.94;220669;1255;140193;-69
2023/08/12 06:45:45;;;;;;;2.80;2.10;;;;;;;19.61;65.39;100445.73;220304;1257;139854;-69
2023/08/12 06:50:55;;;;;;;2.40;1.70;;;;;;;19.91;64.39;100446.29;219268;1258;140160;-68
2023/08/12 06:56:02;;;;;;;7.30;2.40;;;;;;;20.59;62.67;100444.05;219163;1255;139083;-67
2023/08/12 07:01:07;;;;;;;2.80;1.70;;;;;;;21.80;61.22;100442.47;220324;1255;140804;-67
2023/08/12 07:06:12;;;;;;;6.80;2.70;;;;;;;23.96;58.58;100437.36;218700;1257;139481;-67
2023/08/12 07:11:16;;;;;;;3.00;1.70;;;;;;;25.76;55.87;100436.85;218203;1254;139872;-67
2023/08/12 07:16:22;;;;;;;;;;;;;;;27.19;53.12;100439.98;218151;1254;140876;-67
2023/08/12 07:21:27;;;;;;;4.00;1.80;;;;;;;27.99;51.44;100439.20;219122;1257;126147;-67
2023/08/12 07:26:32;;;;;;;6.40;2.40;;;;;;;28.65;49.60;100436.30;218008;1254;139967;-68
2023/08/12 07:31:36;;;;;;;;;;;;;;;29.16;47.27;100433.98;218362;1259;139174;-68
2023/08/12 07:36:43;;;;;;;6.70;1.10;;;;;;;28.88;45.52;100435.03;218360;1255;126267;-68
2023/08/12 07:41:47;;;;;;;4.50;1.70;;;;;;;28.90;45.22;100436.59;218324;1258;140125;-71
2023/08/12 07:46:51;;;;;;;11.60;2.50;;;;;;;29.04;44.54;100441.75;218725;1258;139286;-71
2023/08/12 07:51:57;;;;;;;1.50;1.40;;;;;;;29.22;43.29;100431.58;217903;1259;140051;-69
2023/08/12 07:57:03;;;;;;;3.30;1.90;;;;;;;29.17;42.69;100426.33;218208;1259;140192;-70
2023/08/12 08:02:07;;;;;;;1.40;1.30;;;;;;;28.91;42.30;100424.84;218607;1258;221332;-70
2023/08/12 08:07:12;;;;;;;5.30;2.20;;;;;;;28.93;41.92;100419.96;219249;1259;139330;-69
2023/08/12 08:12:17;;;;;;;2.80;2.20;;;;;;;28.99;41.38;100416.02;217767;1259;140523;-69
2023/08/12 08:17:22;;;;;;;1.50;1.40;;;;;;;29.15;41.78;100420.85;219141;1259;138873;-70
2023/08/12 08:22:28;;;;;;;4.00;1.60;;;;;;;29.19;41.69;100418.17;218007;1259;141297;-67
2023/08/12 08:27:36;;;;;;;3.40;1.60;;;;;;;29.18;40.35;100413.88;219185;1259;140530;-67
2023/08/12 08:32:40;;;;;;;4.00;1.80;;;;;;;28.99;40.56;100409.21;218679;1257;139174;-68
2023/08/12 08:37:47;;;;;;;2.20;1.30;;;;;;;29.14;40.47;100409.30;219395;1258;141998;-68
2023/08/12 08:42:53;;;;;;;5.30;2.10;;;;;;;29.22;40.35;100407.98;220467;1257;139406;-68
2023/08/12 08:48:02;;;;;;;2.40;1.90;;;;;;;29.22;40.06;100409.94;218964;1259;139946;-67
2023/08/12 08:53:07;;;;;;;2.80;1.40;;;;;;;29.27;39.49;100407.52;218291;1259;139547;-68
2023/08/12 08:58:11;;;;;;;5.80;1.70;;;;;;;29.04;38.99;100402.29;219403;1254;140889;-68
2023/08/12 09:03:25;;;;;;;4.70;1.70;;;;;;;29.14;39.46;100403.70;218593;1259;139854;-67
2023/08/12 09:08:33;;;;;;;2.60;1.90;;;;;;;29.36;39.36;100403.64;218415;1256;139881;-67
2023/08/12 09:13:39;;;;;;;2.10;2.00;;;;;;;29.35;38.86;100390.11;218631;1255;140379;-67
2023/08/12 09:18:44;;;;;;;;;;;;;;;29.27;37.90;100385.39;218304;1260;139946;-67
2023/08/12 09:23:48;;;;;;;2.50;2.00;;;;;;;28.72;37.98;100378.48;219139;1259;125832;-68
2023/08/12 09:28:53;;;;;;;1.90;1.80;;;;;;;28.79;37.98;100361.25;217996;1259;140283;-68
2023/08/12 09:34:08;;;;;;;5.20;2.00;;;;;;;28.75;37.97;100363.20;219058;1254;139806;-69
2023/08/12 09:39:13;;;;;;;1.90;1.70;;;;;;;28.92;38.28;100359.33;217831;1257;140846;-68
2023/08/12 09:44:18;;;;;;;5.20;2.30;;;;;;;29.11;38.15;100354.91;218288;1260;139294;-70
2023/08/12 09:49:22;;;;;;;3.00;1.70;;;;;;;29.12;38.10;100351.18;218223;1257;139650;-69
2023/08/12 09:54:28;;;;;;;3.30;2.20;;;;;;;29.21;38.26;100339.63;218643;1257;139746;-71
2023/08/12 09:59:36;;;;;;;2.60;2.20;;;;;;;29.25;37.74;100334.48;217999;1255;138993;-71
2023/08/12 10:04:45;;;;;;;2.90;2.00;;;;;;;29.05;37.53;100328.46;219092;1254;139608;-69
2023/08/12 10:09:50;;;;;;;6.50;2.00;;;;;;;29.12;37.91;100320.05;220108;1257;139833;-70
2023/08/12 10:14:55;;;;;;;3.10;1.70;;;;;;;29.30;38.11;100317.16;220531;1257;141002;-73
2023/08/12 10:20:04;;;;;;;6.10;1.50;;;;;;;29.34;37.44;100322.52;220899;1254;139435;-70
2023/08/12 10:25:11;;;;;;;2.00;1.80;;;;;;;29.26;37.20;100317.57;220729;1254;140865;-70
2023/08/12 10:30:16;;;;;;;2.00;1.90;;;;;;;29.31;36.58;100312.09;218316;1258;140966;-67
2023/08/12 10:35:21;;;;;;;1.70;1.50;;;;;;;29.31;37.00;100314.36;218356;1258;138821;-69
2023/08/12 10:40:24;;;;;;;1.80;1.70;;;;;;;29.24;36.60;100315.70;218886;1258;139720;-68
2023/08/12 10:45:47;;;;;;;2.10;1.80;;;;;;;29.17;36.72;100311.27;218817;1255;140540;-68
2023/08/12 10:50:56;;;;;;;2.20;2.00;;;;;;;29.14;36.83;100310.94;218795;1254;140540;-69
2023/08/12 10:56:02;;;;;;;1.50;1.40;;;;;;;29.33;37.24;100305.00;218037;1254;140214;-69
2023/08/12 11:01:18;;;;;;;1.60;1.10;;;;;;;29.40;36.92;100301.45;219335;1257;138902;-69
2023/08/12 11:06:28;;;;;;;2.80;1.90;;;;;;;29.51;36.99;100294.33;218028;1254;139163;-67
2023/08/12 11:11:34;;;;;;;1.50;1.40;;;;;;;29.68;37.36;100282.13;218575;1254;139369;-70
2023/08/12 11:16:40;;;;;;;4.10;2.20;;;;;;;29.80;37.29;100279.31;219055;1254;141247;-68
2023/08/12 11:21:45;;;;;;;4.30;1.80;;;;;;;29.84;37.02;100269.54;218578;1254;139315;-72
2023/08/12 11:26:53;;;;;;;2.10;2.00;;;;;;;29.91;36.86;100259.66;218297;1254;139196;-70
2023/08/12 11:31:58;;;;;;;4.50;2.20;;;;;;;29.95;36.84;100251.53;218213;1259;138921;-71
2023/08/12 11:37:05;;;;;;;3.90;2.30;;;;;;;29.90;36.69;100248.95;218424;1257;138976;-69
2023/08/12 11:42:11;;;;;;;6.00;2.30;;;;;;;29.81;36.55;100244.25;218120;1259;138992;-70
2023/08/12 11:47:16;;;;;;;2.10;2.00;;;;;;;29.90;36.84;100236.31;218991;1254;139479;-72
2023/08/12 11:52:23;;;;;;;3.00;2.30;;;;;;;29.91;36.50;100231.80;218752;1254;139535;-70
2023/08/12 11:57:28;;;;;;;2.20;1.40;;;;;;;29.88;36.73;100227.00;218874;1254;139447;-70
2023/08/12 12:02:46;;;;;;;3.10;1.70;;;;;;;29.94;36.54;100215.15;218723;1257;141235;-69
2023/08/12 12:07:52;;;;;;;2.40;1.70;;;;;;;30.04;36.79;100221.48;219071;1254;139562;-69
2023/08/12 12:12:58;;;;;;;3.50;2.30;;;;;;;30.08;36.47;100223.85;219034;1254;139684;-68
2023/08/12 12:18:09;;;;;;;1.90;1.80;;;;;;;30.08;36.58;100218.91;218729;1254;140724;-70
2023/08/12 12:23:16;;;;;;;2.20;1.90;;;;;;;30.00;35.99;100212.15;218905;1254;138974;-71
2023/08/12 12:28:20;;;;;;;8.70;1.80;;;;;;;29.83;36.28;100203.31;218769;1254;139371;-69
2023/08/12 12:33:25;;;;;;;3.50;1.80;;;;;;;29.78;36.64;100194.94;219594;1254;139395;-79
2023/08/12 12:38:30;;;;;;;;;;;;;;;29.90;36.85;100187.23;219972;1254;139130;-75
2023/08/12 12:43:35;;;;;;;3.90;1.90;;;;;;;30.07;36.75;100178.35;219065;1254;125470;-69
2023/08/12 12:48:40;;;;;;;2.20;1.80;;;;;;;30.31;36.62;100176.11;218348;1254;653123;-71
2023/08/12 12:53:45;;;;;;;2.20;1.80;;;;;;;30.37;35.69;100171.46;218225;1254;139629;-74
2023/08/12 12:58:53;;;;;;;;;;;;;;;30.24;35.85;100166.29;218794;1254;138900;-71
2023/08/12 13:04:03;;;;;;;1.80;1.70;;;;;;;30.06;35.63;100162.30;218770;1256;125844;-71
2023/08/12 13:09:11;;;;;;;10.00;3.30;;;;;;;29.87;35.43;100158.82;218949;1259;140617;-72
2023/08/12 13:14:21;;;;;;;2.20;2.00;;;;;;;29.84;35.70;100160.61;219288;1254;140747;-74
2023/08/12 13:19:25;;;;;;;3.90;2.10;;;;;;;29.75;35.41;100149.16;218434;1258;139815;-72
2023/08/12 13:24:31;;;;;;;4.30;2.10;;;;;;;29.69;35.73;100149.30;218255;1256;139539;-71
2023/08/12 13:29:36;;;;;;;4.70;2.20;;;;;;;29.68;35.61;100148.11;218223;1257;140181;-70
2023/08/12 13:34:46;;;;;;;2.10;2.00;;;;;;;29.82;36.02;100149.66;218281;1254;140002;-69
2023/08/12 13:39:51;;;;;;;3.20;2.60;;;;;;;29.87;35.95;100146.64;219238;1257;139177;-73
2023/08/12 13:44:57;;;;;;;12.90;2.90;;;;;;;29.84;36.04;100139.88;218310;1258;140181;-74
2023/08/12 13:50:05;;;;;;;2.90;2.50;;;;;;;29.89;36.19;100135.06;218975;1256;140189;-70
2023/08/12 13:55:11;;;;;;;2.80;2.60;;;;;;;29.80;35.89;100128.86;219870;1256;139297;-69
2023/08/12 14:00:18;;;;;;;2.50;2.00;;;;;;;29.75;35.96;100123.34;220153;1257;139896;-70
2023/08/12 14:05:23;;;;;;;9.10;2.50;;;;;;;29.83;36.04;100119.91;219526;1256;139990;-70
2023/08/12 14:10:29;;;;;;;2.60;2.50;;;;;;;29.80;35.80;100112.70;219080;1257;140273;-70
2023/08/12 14:15:34;;;;;;;4.80;2.60;;;;;;;29.68;35.52;100108.46;217825;1257;139255;-70
2023/08/12 14:20:38;;;;;;;4.90;3.50;;;;;;;29.73;36.14;100102.23;219426;1257;139302;-69
2023/08/12 14:25:46;;;;;;;3.30;2.40;;;;;;;29.82;36.05;100100.42;218972;1256;139478;-69
2023/08/12 14:30:51;;;;;;;3.40;2.60;;;;;;;29.82;35.99;100096.80;219221;1256;138862;-69
2023/08/12 14:35:59;;;;;;;2.60;1.70;;;;;;;29.82;35.63;100092.96;218469;1256;140936;-69
2023/08/12 14:41:04;;;;;;;2.80;1.90;;;;;;;29.82;35.24;100083.08;217698;1259;140511;-70
2023/08/12 14:46:08;;;;;;;7.60;2.50;;;;;;;29.74;35.42;100079.64;218342;1257;138716;-69
2023/08/12 14:51:12;;;;;;;6.40;2.50;;;;;;;29.66;35.55;100079.37;218002;1256;140465;-70
2023/08/12 14:56:18;;;;;;;5.80;2.00;;;;;;;29.66;35.56;100072.54;218913;1256;205515;-70
2023/08/12 15:01:24;;;;;;;2.20;2.10;;;;;;;29.62;35.40;100067.04;218511;1256;140131;-66
2023/08/12 15:06:29;;;;;;;2.40;1.90;;;;;;;29.55;35.20;100059.94;218226;1260;139202;-67
2023/08/12 15:11:34;;;;;;;;;;;;;;;29.45;35.32;100055.84;218639;1259;139789;-70
2023/08/12 15:16:40;;;;;;;4.10;2.40;;;;;;;29.30;35.54;100054.33;218083;1256;125588;-66
2023/08/12 15:21:45;;;;;;;3.00;2.60;;;;;;;29.30;36.20;100045.39;218612;1256;139972;-67
2023/08/12 15:26:50;;;;;;;4.50;2.40;;;;;;;29.32;36.11;100039.42;218292;1257;139204;-67
2023/08/12 15:31:55;;;;;;;4.00;2.30;;;;;;;29.30;36.00;100033.69;218817;1255;139815;-72
2023/08/12 15:36:58;;;;;;;6.90;2.40;;;;;;;29.18;36.14;100029.86;219384;1259;139581;-70
2023/08/12 15:42:03;;;;;;;2.30;2.10;;;;;;;29.16;36.51;100026.73;219280;1256;139430;-72
2023/08/12 15:47:07;;;;;;;7.20;3.90;;;;;;;29.15;36.33;100026.79;218076;1257;139080;-70
2023/08/12 15:52:11;;;;;;;7.50;1.90;;;;;;;29.09;36.33;100026.41;219246;1258;139982;-69
2023/08/12 15:57:16;;;;;;;5.20;2.20;;;;;;;29.02;36.26;100020.02;219302;1256;142470;-69
2023/08/12 16:02:21;;;;;;;3.00;2.20;;;;;;;28.80;36.59;100023.09;220336;1256;139921;-70
2023/08/12 16:07:26;;;;;;;2.50;2.30;;;;;;;28.66;36.71;100023.88;220587;1256;140350;-69
2023/08/12 16:12:30;;;;;;;;;;;;;;;28.62;36.60;100021.23;219940;1256;139646;-68
2023/08/12 16:17:35;;;;;;;4.30;2.60;;;;;;;28.53;37.46;100023.86;219994;1259;125567;-67
2023/08/12 16:22:40;;;;;;;2.10;1.80;;;;;;;28.44;38.30;100025.88;218359;1256;140792;-66
2023/08/12 16:27:45;;;;;;;2.80;2.00;;;;;;;28.25;39.34;100018.48;219758;1256;139385;-68
2023/08/12 16:32:51;;;;;;;4.90;2.50;;;;;;;28.10;39.94;100020.60;218951;1256;141624;-69
2023/08/12 16:37:58;;;;;;;8.10;2.30;;;;;;;27.97;39.72;100015.89;219379;1258;139351;-67
2023/08/12 16:43:06;;;;;;;2.80;1.80;;;;;;;27.82;40.37;100010.33;220151;1256;139215;-67
2023/08/12 16:48:11;;;;;;;2.30;2.10;;;;;;;27.66;40.63;100006.09;218901;1256;140811;-65
2023/08/12 16:53:16;;;;;;;177.40;17.30;;;;;;;27.56;41.72;100000.63;218242;1256;141114;-66
2023/08/12 16:58:21;;;;;;;4.30;2.40;;;;;;;27.42;42.39;99998.29;219040;1257;139805;-67
2023/08/12 17:03:27;;;;;;;2.20;2.10;;;;;;;27.24;42.80;99997.76;218068;1256;138995;-67
2023/08/12 17:08:32;;;;;;;3.90;2.10;;;;;;;27.03;42.96;99991.34;218322;1259;139403;-68
2023/08/12 17:13:37;;;;;;;2.20;2.00;;;;;;;26.78;43.36;99986.84;218372;1257;140334;-67
2023/08/12 17:18:41;;;;;;;2.80;2.30;;;;;;;26.50;43.88;99983.80;218779;1256;139863;-67
2023/08/12 17:23:45;;;;;;;4.20;2.30;;;;;;;26.21;44.75;99980.27;217887;1256;139044;-68
2023/08/12 17:28:53;;;;;;;3.50;3.20;;;;;;;25.94;45.71;99981.09;218027;1257;140097;-69
2023/08/12 17:33:58;;;;;;;16.30;3.30;;;;;;;25.68;46.38;99977.88;218936;1256;139212;-69
2023/08/12 17:39:04;;;;;;;6.00;2.90;;;;;;;25.42;47.24;99981.65;217567;1256;139000;-69
2023/08/12 17:44:11;;;;;;;7.50;2.60;;;;;;;25.16;47.77;99979.70;219393;1256;139668;-69
2023/08/12 17:49:16;;;;;;;6.60;3.10;;;;;;;24.89;48.61;99979.96;217956;1259;138878;-68
2023/08/12 17:54:21;;;;;;;;;;;;;;;24.63;49.08;99978.17;219124;1257;140100;-69
2023/08/12 17:59:26;;;;;;;3.30;3.00;;;;;;;24.33;49.96;99980.00;218944;1255;124971;-69
2023/08/12 18:04:31;;;;;;;7.50;3.50;;;;;;;24.06;50.67;99983.58;217920;1259;138906;-68
2023/08/12 18:09:36;;;;;;;3.50;3.00;;;;;;;23.80;51.16;99991.46;219637;1256;139589;-70
2023/08/12 18:14:41;;;;;;;4.20;2.50;;;;;;;23.56;51.79;99992.52;218205;1256;139689;-69
2023/08/12 18:19:46;;;;;;;4.10;3.30;;;;;;;23.31;52.45;99996.01;220275;1257;139456;-69
2023/08/12 18:24:54;;;;;;;3.20;3.00;;;;;;;23.04;52.89;100002.65;220504;1256;139068;-69
2023/08/12 18:30:04;;;;;;;9.30;3.70;;;;;;;22.75;53.23;100005.20;220139;1256;139106;-69
2023/08/12 18:35:11;;;;;;;8.30;4.30;;;;;;;22.48;53.66;100011.97;218540;1256;139645;-69
2023/08/12 18:40:15;;;;;;;7.20;3.70;;;;;;;22.17;54.10;100009.50;218784;1256;139452;-68
2023/08/12 18:45:19;;;;;;;12.30;5.40;;;;;;;21.81;54.72;100011.60;219036;1256;139218;-68
2023/08/12 18:50:24;;;;;;;9.70;5.30;;;;;;;21.58;55.41;100013.51;218075;1256;140456;-68
2023/08/12 18:55:29;;;;;;;9.10;3.50;;;;;;;21.42;55.89;100007.69;218897;1256;139460;-68
2023/08/12 19:00:36;;;;;;;12.30;4.50;;;;;;;21.18;56.12;99999.59;218078;1257;139584;-68
2023/08/12 19:05:45;;;;;;;10.50;3.60;;;;;;;20.88;56.43;100001.23;219030;1256;140247;-69
2023/08/12 19:10:57;;;;;;;7.80;4.00;;;;;;;20.55;56.97;100004.63;218649;1259;139456;-69
2023/08/12 19:16:01;;;;;;;12.10;4.20;;;;;;;20.39;57.74;100003.61;218066;1256;140174;-71
2023/08/12 19:21:04;;;;;;;6.00;4.50;;;;;;;20.25;58.06;100004.33;217850;1257;140893;-69
2023/08/12 19:26:08;;;;;;;6.90;4.50;;;;;;;20.02;58.43;100007.19;218197;1257;140070;-69
2023/08/12 19:31:13;;;;;;;5.00;3.90;;;;;;;19.79;58.87;100001.36;218065;1256;139093;-69
2023/08/12 19:36:17;;;;;;;4.20;3.70;;;;;;;19.61;59.58;99998.05;218830;1255;140081;-68
2023/08/12 19:41:20;;;;;;;5.10;4.20;;;;;;;19.54;60.14;100003.23;217933;1257;139131;-69
2023/08/12 19:46:25;;;;;;;5.80;4.50;;;;;;;19.51;60.44;100009.14;219221;1257;138947;-69
2023/08/12 19:51:28;;;;;;;11.90;4.90;;;;;;;19.48;60.71;100005.80;217744;1256;140880;-68
2023/08/12 19:56:32;;;;;;;10.10;6.90;;;;;;;19.48;60.82;100001.63;219165;1256;140187;-69
2023/08/12 20:01:36;;;;;;;7.90;5.00;;;;;;;19.49;61.15;99997.62;219368;1256;140174;-69
2023/08/12 20:06:39;;;;;;;4.60;4.30;;;;;;;19.54;61.53;99996.10;220540;1256;140130;-69
2023/08/12 20:11:43;;;;;;;8.70;4.90;;;;;;;19.62;61.42;99999.33;220336;1256;140519;-69
2023/08/12 20:16:48;;;;;;;5.10;4.70;;;;;;;19.76;61.53;99999.07;220476;1256;140625;-69
2023/08/12 20:21:53;;;;;;;5.00;4.50;;;;;;;19.88;61.29;100004.06;220210;1259;141941;-69
2023/08/12 20:26:57;;;;;;;6.20;4.00;;;;;;;19.99;60.91;100004.56;219868;1256;141456;-69
2023/08/12 20:32:01;;;;;;;4.90;4.40;;;;;;;20.09;60.69;100006.06;218864;1257;140322;-69
2023/08/12 20:37:05;;;;;;;8.50;4.70;;;;;;;20.17;60.51;100007.19;218656;1257;139654;-68
2023/08/12 20:42:09;;;;;;;4.70;4.00;;;;;;;20.22;60.69;100010.70;219341;1256;142499;-69
2023/08/12 20:47:12;;;;;;;5.40;4.90;;;;;;;20.22;61.12;100015.89;218110;1256;140361;-68
2023/08/12 20:52:16;;;;;;;6.60;4.70;;;;;;;20.18;61.16;100011.41;218625;1257;141417;-68
2023/08/12 20:57:20;;;;;;;10.50;5.30;;;;;;;20.08;61.22;100011.39;218425;1257;140113;-69
2023/08/12 21:02:24;;;;;;;23.90;6.70;;;;;;;20.02;61.25;100005.23;217608;1259;140751;-68
2023/08/12 21:07:28;;;;;;;8.80;5.10;;;;;;;20.00;61.04;99998.98;219190;1256;140448;-69
2023/08/12 21:12:36;;;;;;;8.50;6.00;;;;;;;20.02;60.80;99994.68;218641;1257;140543;-70
2023/08/12 21:17:40;;;;;;;6.70;5.20;;;;;;;20.06;60.70;99992.20;218884;1256;140903;-69
2023/08/12 21:22:47;;;;;;;11.90;5.50;;;;;;;20.12;60.74;99986.49;218057;1257;140635;-68
2023/08/12 21:27:51;;;;;;;;;;;;;;;20.13;60.52;99982.73;219245;1257;140678;-70
2023/08/12 21:32:55;;;;;;;6.70;5.10;;;;;;;20.15;60.50;99980.67;218344;1257;126141;-69
2023/08/12 21:37:59;;;;;;;7.10;5.50;;;;;;;20.19;60.45;99968.83;218474;1257;140019;-69
2023/08/12 21:43:04;;;;;;;8.80;5.40;;;;;;;20.21;60.20;99961.92;218433;1257;139182;-69
2023/08/12 21:48:07;;;;;;;5.40;5.00;;;;;;;20.22;60.25;99956.77;219068;1256;139150;-70
2023/08/12 21:53:10;;;;;;;7.40;5.10;;;;;;;20.25;59.92;99957.00;218000;1256;139287;-68
2023/08/12 21:58:14;;;;;;;10.30;4.30;;;;;;;20.28;59.89;99957.12;219158;1256;141699;-69
2023/08/12 22:03:17;;;;;;;6.30;5.20;;;;;;;20.28;59.70;99951.48;219095;1261;139222;-70
2023/08/12 22:08:20;;;;;;;5.30;4.80;;;;;;;20.29;59.72;99952.61;219359;1256;138928;-69
2023/08/12 22:13:24;;;;;;;6.50;5.30;;;;;;;20.31;59.57;99952.64;219178;1256;139691;-69
2023/08/12 22:18:28;;;;;;;6.60;5.20;;;;;;;20.34;59.39;99951.63;220323;1257;140412;-70
2023/08/12 22:23:31;;;;;;;5.30;4.80;;;;;;;20.38;59.27;99947.86;220449;1259;139117;-70
2023/08/12 22:28:35;;;;;;;5.00;4.50;;;;;;;20.42;59.15;99948.19;220204;1256;139109;-70
2023/08/12 22:33:38;;;;;;;5.80;5.00;;;;;;;20.46;58.97;99947.96;218813;1257;140569;-70
2023/08/12 22:38:42;;;;;;;6.40;5.20;;;;;;;20.46;59.04;99944.11;217648;1257;139666;-69
2023/08/12 22:43:46;;;;;;;5.70;5.10;;;;;;;20.43;59.03;99938.10;218547;1257;139863;-68
2023/08/12 22:48:49;;;;;;;5.10;4.80;;;;;;;20.40;59.02;99938.41;218355;1257;139089;-68
2023/08/12 22:53:53;;;;;;;7.40;5.10;;;;;;;20.38;59.13;99935.45;218259;1256;139454;-69
2023/08/12 22:58:59;;;;;;;6.90;4.60;;;;;;;20.34;59.16;99937.77;218624;1257;140212;-68
2023/08/12 23:04:04;;;;;;;5.00;4.40;;;;;;;20.30;59.24;99934.03;218497;1257;139676;-68
2023/08/12 23:09:08;;;;;;;4.30;3.90;;;;;;;20.28;59.18;99931.35;218038;1257;138578;-68
2023/08/12 23:14:11;;;;;;;5.40;4.30;;;;;;;20.24;59.27;99932.21;218308;1257;139467;-69